createdAt,value
2022-10-05T00:00:14.152Z,21.85
2022-10-05T00:03:11.036Z,24.55
2022-10-05T00:05:39.733Z,23.33
2022-10-05T00:08:14.717Z,23.75
2022-10-05T00:10:43.966Z,23.23
2022-10-05T00:13:16.217Z,23.63
2022-10-05T00:15:45.263Z,21.08
2022-10-05T00:18:17.439Z,23.30
2022-10-05T00:20:46.677Z,23.20
2022-10-05T00:23:19.846Z,25.02
2022-10-05T00:25:48.509Z,23.90
2022-10-05T00:28:19.795Z,28.80
2022-10-05T00:30:48.232Z,31.45
2022-10-05T00:33:16.465Z,26.77
2022-10-05T00:35:44.738Z,27.52
2022-10-05T00:38:12.891Z,29.02
2022-10-05T00:40:54.554Z,22.75
2022-10-05T00:43:44.969Z,19.30
2022-10-05T00:46:16.569Z,21.35
2022-10-05T00:48:54.510Z,22.73
2022-10-05T00:51:26.796Z,22.52
2022-10-05T00:54:03.311Z,20.73
2022-10-05T00:56:43.429Z,17.75
2022-10-05T00:59:19.747Z,16.73
2022-10-05T01:01:52.202Z,19.42
2022-10-05T01:04:23.565Z,14.88
2022-10-05T01:07:01.218Z,17.23
2022-10-05T01:09:34.711Z,12.50
2022-10-05T01:12:08.873Z,10.98
2022-10-05T01:14:44.789Z,11.25
2022-10-05T01:17:18.495Z,10.32
2022-10-05T01:20:08.325Z,10.13
2022-10-05T01:22:48.727Z,9.50
2022-10-05T01:28:01.448Z,9.15
2022-10-05T01:30:34.522Z,8.77
2022-10-05T01:33:07.254Z,7.97
2022-10-05T01:35:44.267Z,7.68
2022-10-05T01:38:21.907Z,7.65
2022-10-05T01:40:56.022Z,8.05
2022-10-05T01:43:32.848Z,8.13
2022-10-05T01:46:04.676Z,8.40
2022-10-05T01:48:38.693Z,8.07
2022-10-05T01:51:13.795Z,11.45
2022-10-05T01:53:51.199Z,11.30
2022-10-05T01:56:25.978Z,9.43
2022-10-05T01:59:03.152Z,9.90
2022-10-05T02:01:37.758Z,9.93
2022-10-05T02:04:11.502Z,7.68
2022-10-05T02:06:42.812Z,7.55
2022-10-05T02:09:14.679Z,7.22
2022-10-05T02:11:46.027Z,9.25
2022-10-05T02:14:19.226Z,9.35
2022-10-05T02:16:48.890Z,7.35
2022-10-05T02:19:22.126Z,7.40
2022-10-05T02:21:54.723Z,9.38
2022-10-05T02:24:24.976Z,7.43
2022-10-05T02:26:54.733Z,13.10
2022-10-05T02:29:26.896Z,13.13
2022-10-05T02:31:59.033Z,7.75
2022-10-05T02:34:28.961Z,5.90
2022-10-05T02:37:08.796Z,6.78
2022-10-05T02:39:43.597Z,6.45
2022-10-05T02:42:16.848Z,7.20
2022-10-05T02:44:50.867Z,6.60
2022-10-05T02:47:24.998Z,6.40
2022-10-05T02:49:57.687Z,6.55
2022-10-05T02:52:28.537Z,6.95
2022-10-05T02:55:03.731Z,6.80
2022-10-05T02:57:36.868Z,6.30
2022-10-05T03:00:10.409Z,5.97
2022-10-05T03:02:43.050Z,6.95
2022-10-05T03:05:19.083Z,7.10
2022-10-05T03:07:53.401Z,7.13
2022-10-05T03:10:28.154Z,12.98
2022-10-05T03:13:02.308Z,7.45
2022-10-05T03:15:52.626Z,7.35
2022-10-05T03:18:30.770Z,6.67
2022-10-05T03:21:08.051Z,7.22
2022-10-05T03:23:45.889Z,6.68
2022-10-05T03:26:27.702Z,6.72
2022-10-05T03:29:00.307Z,7.63
2022-10-05T03:31:34.054Z,6.90
2022-10-05T03:34:08.057Z,6.20
2022-10-05T03:36:42.518Z,6.57
2022-10-05T03:39:16.214Z,6.60
2022-10-05T03:41:48.848Z,6.35
2022-10-05T03:44:25.706Z,5.90
2022-10-05T03:47:06.984Z,8.43
2022-10-05T03:52:11.228Z,8.63
2022-10-05T03:54:41.549Z,11.68
2022-10-05T03:57:12.768Z,18.67
2022-10-05T03:59:45.644Z,17.90
2022-10-05T04:02:22.072Z,13.93
2022-10-05T04:04:54.379Z,12.98
2022-10-05T04:07:31.013Z,11.77
2022-10-05T04:09:59.638Z,13.23
2022-10-05T04:12:30.579Z,11.05
2022-10-05T04:15:01.402Z,12.50
2022-10-05T04:17:34.476Z,12.57
2022-10-05T04:20:06.336Z,9.00
2022-10-05T04:22:38.533Z,5.80
2022-10-05T04:25:15.711Z,7.70
2022-10-05T04:27:46.896Z,7.03
2022-10-05T04:30:17.645Z,6.05
2022-10-05T04:32:51.057Z,6.20
2022-10-05T04:35:30.931Z,5.70
2022-10-05T04:38:09.715Z,6.15
2022-10-05T04:40:45.878Z,6.13
2022-10-05T04:43:17.618Z,5.93
2022-10-05T04:46:16.114Z,5.57
2022-10-05T04:48:58.820Z,5.93
2022-10-05T04:51:36.900Z,5.90
2022-10-05T04:54:15.448Z,6.10
2022-10-05T04:56:47.146Z,5.50
2022-10-05T04:59:53.160Z,6.68
2022-10-05T05:02:28.076Z,7.53
2022-10-05T05:05:23.183Z,5.82
2022-10-05T05:07:55.750Z,6.03
2022-10-05T05:10:51.564Z,6.63
2022-10-05T05:13:34.410Z,5.43
2022-10-05T05:16:06.439Z,7.63
2022-10-05T05:18:55.558Z,6.80
2022-10-05T05:21:34.483Z,5.25
2022-10-05T05:24:07.012Z,5.90
2022-10-05T05:26:47.042Z,5.75
2022-10-05T05:29:19.081Z,6.53
2022-10-05T05:31:50.382Z,5.95
2022-10-05T05:34:33.530Z,5.85
2022-10-05T05:37:07.840Z,6.15
2022-10-05T05:39:43.578Z,5.47
2022-10-05T05:42:20.738Z,5.60
2022-10-05T05:44:52.015Z,5.82
2022-10-05T05:50:05.589Z,7.05
2022-10-05T05:52:40.741Z,6.55
2022-10-05T05:55:15.665Z,6.75
2022-10-05T05:57:46.292Z,6.75
2022-10-05T06:00:20.609Z,5.93
2022-10-05T06:02:53.954Z,6.75
2022-10-05T06:05:29.041Z,6.38
2022-10-05T06:07:59.762Z,7.05
2022-10-05T06:10:33.650Z,7.47
2022-10-05T06:13:06.868Z,7.15
2022-10-05T06:15:37.470Z,7.70
2022-10-05T06:18:11.012Z,7.38
2022-10-05T06:20:42.335Z,8.68
2022-10-05T06:23:16.833Z,9.18
2022-10-05T06:25:56.073Z,9.73
2022-10-05T06:28:26.297Z,7.80
2022-10-05T06:31:03.209Z,7.33
2022-10-05T06:33:44.177Z,7.18
2022-10-05T06:36:22.146Z,7.40
2022-10-05T06:39:06.291Z,7.53
2022-10-05T06:41:43.177Z,7.38
2022-10-05T06:44:14.808Z,6.60
2022-10-05T06:46:51.893Z,5.97
2022-10-05T06:49:21.880Z,6.82
2022-10-05T06:51:54.222Z,6.30
2022-10-05T06:54:31.906Z,5.88
2022-10-05T06:57:06.098Z,5.60
2022-10-05T06:59:39.145Z,5.55
2022-10-05T07:02:11.660Z,5.00
2022-10-05T07:04:52.471Z,4.93
2022-10-05T07:07:25.108Z,4.53
2022-10-05T07:10:03.466Z,4.47
2022-10-05T07:12:45.234Z,4.78
2022-10-05T07:15:39.817Z,4.18
2022-10-05T07:18:25.330Z,5.70
2022-10-05T07:20:58.932Z,4.25
2022-10-05T07:23:38.970Z,4.20
2022-10-05T07:26:11.704Z,4.25
2022-10-05T07:28:46.386Z,3.47
2022-10-05T07:31:19.760Z,3.95
2022-10-05T07:33:53.357Z,4.00
2022-10-05T07:36:49.696Z,3.92
2022-10-05T07:39:42.025Z,3.38
2022-10-05T07:42:24.981Z,3.50
2022-10-05T07:44:57.304Z,3.92
2022-10-05T07:47:30.323Z,3.90
2022-10-05T07:50:02.608Z,3.45
2022-10-05T07:52:34.988Z,3.42
2022-10-05T07:55:06.563Z,3.70
2022-10-05T07:57:40.739Z,3.22
2022-10-05T08:00:15.054Z,4.18
2022-10-05T08:02:47.030Z,2.88
2022-10-05T08:05:21.054Z,2.92
2022-10-05T08:07:52.875Z,2.70
2022-10-05T08:10:31.408Z,2.75
2022-10-05T08:13:08.655Z,3.00
2022-10-05T08:15:43.132Z,3.50
2022-10-05T08:18:19.038Z,3.35
2022-10-05T08:20:49.137Z,3.10
2022-10-05T08:23:23.105Z,3.67
2022-10-05T08:25:58.727Z,4.30
2022-10-05T08:28:32.961Z,4.25
2022-10-05T08:31:06.093Z,4.53
2022-10-05T08:33:39.507Z,4.55
2022-10-05T08:36:10.868Z,5.10
2022-10-05T08:38:39.905Z,5.00
2022-10-05T08:41:34.292Z,5.10
2022-10-05T08:44:38.098Z,4.57
2022-10-05T08:47:19.754Z,5.13
2022-10-05T08:50:01.480Z,4.90
2022-10-05T08:52:30.269Z,5.53
2022-10-05T08:55:30.990Z,5.40
2022-10-05T08:58:16.955Z,4.60
2022-10-05T09:00:55.323Z,5.38
2022-10-05T09:03:49.886Z,4.43
2022-10-05T09:06:34.673Z,4.55
2022-10-05T09:09:32.295Z,4.47
2022-10-05T09:12:18.571Z,4.35
2022-10-05T09:15:13.713Z,4.50
2022-10-05T09:18:25.553Z,5.32
2022-10-05T09:20:54.735Z,4.22
2022-10-05T09:23:38.193Z,4.38
2022-10-05T09:26:24.381Z,4.00
2022-10-05T09:29:03.356Z,3.35
2022-10-05T09:31:50.092Z,3.55
2022-10-05T09:34:35.586Z,4.53
2022-10-05T09:37:30.094Z,3.90
2022-10-05T09:40:29.706Z,3.53
2022-10-05T09:43:07.020Z,2.83
2022-10-05T09:45:54.431Z,2.90
2022-10-05T09:48:59.184Z,3.08
2022-10-05T09:52:08.293Z,2.83
2022-10-05T09:55:26.954Z,4.35
2022-10-05T09:58:33.407Z,2.60
2022-10-05T10:01:33.234Z,2.65
2022-10-05T10:04:18.941Z,2.30
2022-10-05T10:07:25.159Z,2.08
2022-10-05T10:10:24.064Z,2.42
2022-10-05T10:13:09.354Z,2.05
2022-10-05T10:16:05.872Z,1.83
2022-10-05T10:19:00.688Z,1.70
2022-10-05T10:21:42.253Z,2.15
2022-10-05T10:24:18.387Z,1.60
2022-10-05T10:27:11.615Z,2.80
2022-10-05T10:30:05.891Z,1.83
2022-10-05T10:33:15.621Z,2.22
2022-10-05T10:35:47.170Z,1.80
2022-10-05T10:38:31.899Z,2.22
2022-10-05T10:41:22.821Z,1.88
2022-10-05T10:44:24.282Z,2.00
2022-10-05T10:49:37.312Z,2.15
2022-10-05T10:52:27.473Z,1.80
2022-10-05T10:55:17.389Z,1.90
2022-10-05T10:58:04.099Z,2.25
2022-10-05T11:00:44.232Z,2.50
2022-10-05T11:03:53.996Z,1.90
2022-10-05T11:06:32.933Z,1.98
2022-10-05T11:09:33.872Z,2.35
2022-10-05T11:14:46.759Z,2.35
2022-10-05T11:17:33.528Z,2.45
2022-10-05T11:20:09.430Z,2.13
2022-10-05T11:22:51.838Z,2.45
2022-10-05T11:25:32.394Z,3.10
2022-10-05T11:28:34.759Z,2.30
2022-10-05T11:31:45.313Z,2.38
2022-10-05T11:34:59.677Z,3.10
2022-10-05T11:37:57.528Z,2.53
2022-10-05T11:41:01.520Z,2.05
2022-10-05T11:43:54.565Z,2.00
2022-10-05T11:46:29.471Z,2.03
2022-10-05T11:49:09.816Z,2.22
2022-10-05T11:51:43.362Z,1.75
2022-10-05T11:54:23.630Z,1.98
2022-10-05T11:56:55.007Z,2.30
2022-10-05T11:59:30.149Z,2.20
2022-10-05T12:02:08.180Z,3.22
2022-10-05T12:04:45.530Z,2.88
2022-10-05T12:07:20.498Z,2.50
2022-10-05T12:10:17.548Z,2.45
2022-10-05T12:12:55.455Z,2.13
2022-10-05T12:15:27.371Z,2.97
2022-10-05T12:18:04.878Z,2.70
2022-10-05T12:20:36.719Z,2.78
2022-10-05T12:23:08.384Z,2.60
2022-10-05T12:25:40.288Z,3.97
2022-10-05T12:28:12.828Z,4.25
2022-10-05T12:31:01.611Z,2.65
2022-10-05T12:33:35.501Z,2.22
2022-10-05T12:36:07.437Z,2.13
2022-10-05T12:38:38.895Z,2.30
2022-10-05T12:43:47.225Z,2.38
2022-10-05T12:46:21.548Z,2.45
2022-10-05T12:49:13.227Z,2.63
2022-10-05T12:51:43.830Z,2.53
2022-10-05T12:54:18.660Z,2.50
2022-10-05T12:56:53.982Z,3.05
2022-10-05T12:59:32.280Z,3.47
2022-10-05T13:02:04.155Z,4.75
2022-10-05T13:04:40.946Z,2.50
2022-10-05T13:07:23.120Z,2.65
2022-10-05T13:09:58.736Z,4.75
2022-10-05T13:12:36.484Z,2.60
2022-10-05T13:15:11.941Z,2.42
2022-10-05T13:17:45.725Z,2.35
2022-10-05T13:20:21.732Z,2.47
2022-10-05T13:22:55.266Z,2.45
2022-10-05T13:25:28.610Z,2.55
2022-10-05T13:28:10.623Z,3.15
2022-10-05T13:30:41.112Z,2.28
2022-10-05T13:33:18.185Z,2.40
2022-10-05T13:35:52.266Z,2.30
2022-10-05T13:38:27.145Z,2.63
2022-10-05T13:41:02.206Z,2.28
2022-10-05T13:43:39.665Z,3.28
2022-10-05T13:46:11.834Z,3.40
2022-10-05T13:48:51.042Z,3.83
2022-10-05T13:51:23.654Z,2.92
2022-10-05T13:53:57.763Z,3.53
2022-10-05T13:56:30.470Z,3.55
2022-10-05T13:59:07.798Z,2.78
2022-10-05T14:01:42.588Z,3.00
2022-10-05T14:04:18.037Z,3.08
2022-10-05T14:06:48.744Z,2.97
2022-10-05T14:09:30.194Z,3.10
2022-10-05T14:12:14.314Z,3.60
2022-10-05T14:14:46.933Z,3.08
2022-10-05T14:17:17.735Z,3.17
2022-10-05T14:19:48.464Z,3.95
2022-10-05T14:22:24.217Z,4.10
2022-10-05T14:24:55.656Z,4.43
2022-10-05T14:27:26.591Z,3.85
2022-10-05T14:29:58.318Z,5.38
2022-10-05T14:32:28.651Z,3.67
2022-10-05T14:35:01.382Z,2.78
2022-10-05T14:37:44.416Z,3.22
2022-10-05T14:40:33.667Z,4.88
2022-10-05T14:43:16.681Z,4.05
2022-10-05T14:45:55.177Z,2.67
2022-10-05T14:48:24.191Z,2.70
2022-10-05T14:50:55.132Z,2.53
2022-10-05T14:53:26.320Z,2.40
2022-10-05T14:56:27.611Z,3.08
2022-10-05T14:59:23.317Z,4.32
2022-10-05T15:01:57.548Z,2.85
2022-10-05T15:04:37.012Z,2.80
2022-10-05T15:07:19.561Z,2.67
2022-10-05T15:10:01.699Z,6.10
2022-10-05T15:12:32.972Z,4.38
2022-10-05T15:15:06.627Z,4.47
2022-10-05T15:17:38.571Z,4.25
2022-10-05T15:20:18.659Z,3.65
2022-10-05T15:22:51.566Z,3.40
2022-10-05T15:25:27.898Z,3.20
2022-10-05T15:28:08.319Z,3.25
2022-10-05T15:30:39.420Z,2.85
2022-10-05T15:33:14.237Z,3.00
2022-10-05T15:35:48.875Z,3.28
2022-10-05T15:38:22.217Z,2.60
2022-10-05T15:40:59.769Z,2.97
2022-10-05T15:43:36.072Z,3.03
2022-10-05T15:46:08.751Z,3.42
2022-10-05T15:48:47.065Z,3.55
2022-10-05T15:51:22.509Z,3.45
2022-10-05T15:54:16.002Z,3.67
2022-10-05T15:56:49.394Z,3.50
2022-10-05T15:59:24.664Z,3.45
2022-10-05T16:01:55.779Z,3.63
2022-10-05T16:07:14.111Z,3.65
2022-10-05T16:09:52.025Z,4.18
2022-10-05T16:12:30.628Z,5.80
2022-10-05T16:15:07.013Z,5.57
2022-10-05T16:17:51.160Z,5.40
2022-10-05T16:20:30.336Z,4.53
2022-10-05T16:23:04.275Z,5.40
2022-10-05T16:25:44.223Z,5.32
2022-10-05T16:28:21.555Z,4.88
2022-10-05T16:31:09.796Z,5.60
2022-10-05T16:33:48.197Z,5.25
2022-10-05T16:36:23.002Z,5.85
2022-10-05T16:38:57.861Z,6.25
2022-10-05T16:41:42.994Z,5.50
2022-10-05T16:44:18.949Z,6.18
2022-10-05T16:46:51.556Z,6.65
2022-10-05T16:49:29.832Z,6.30
2022-10-05T16:52:11.703Z,6.22
2022-10-05T16:54:47.502Z,6.20
2022-10-05T16:57:21.104Z,5.63
2022-10-05T17:02:58.788Z,4.95
2022-10-05T17:05:40.393Z,5.88
2022-10-05T17:08:36.825Z,6.32
2022-10-05T17:11:15.983Z,5.78
2022-10-05T17:14:26.698Z,6.75
2022-10-05T17:17:17.715Z,7.30
2022-10-05T17:19:54.106Z,6.57
2022-10-05T17:22:26.736Z,6.22
2022-10-05T17:25:00.688Z,7.57
2022-10-05T17:27:35.368Z,7.28
2022-10-05T17:30:37.499Z,7.38
2022-10-05T17:33:20.936Z,7.15
2022-10-05T17:35:55.317Z,9.52
2022-10-05T17:38:24.651Z,7.95
2022-10-05T17:41:21.756Z,7.97
2022-10-05T17:44:24.564Z,8.05
2022-10-05T17:46:57.915Z,9.32
2022-10-05T17:50:16.723Z,9.85
2022-10-05T17:53:03.815Z,7.97
2022-10-05T17:55:50.130Z,8.82
2022-10-05T17:58:58.424Z,10.07
2022-10-05T18:01:30.450Z,9.68
2022-10-05T18:04:35.488Z,7.60
2022-10-05T18:07:17.261Z,7.43
2022-10-05T18:09:58.818Z,7.50
2022-10-05T18:12:43.118Z,7.82
2022-10-05T18:15:31.389Z,9.68
2022-10-05T18:18:20.618Z,7.70
2022-10-05T18:21:08.735Z,7.97
2022-10-05T18:23:38.669Z,8.18
2022-10-05T18:26:09.330Z,9.98
2022-10-05T18:28:48.241Z,9.65
2022-10-05T18:31:23.677Z,10.30
2022-10-05T18:34:19.249Z,9.38
2022-10-05T18:36:57.282Z,9.85
2022-10-05T18:39:50.593Z,9.20
2022-10-05T18:42:37.465Z,10.40
2022-10-05T18:45:18.037Z,11.63
2022-10-05T18:47:50.448Z,9.95
2022-10-05T18:50:25.476Z,11.05
2022-10-05T18:53:08.560Z,9.88
2022-10-05T18:55:42.307Z,9.95
2022-10-05T18:58:22.502Z,10.07
2022-10-05T19:01:02.747Z,9.68
2022-10-05T19:03:37.609Z,9.95
2022-10-05T19:06:13.483Z,11.35
2022-10-05T19:08:51.088Z,10.65
2022-10-05T19:11:24.349Z,12.32
2022-10-05T19:13:58.587Z,11.27
2022-10-05T19:16:41.437Z,10.77
2022-10-05T19:19:29.350Z,10.77
2022-10-05T19:22:03.348Z,9.55
2022-10-05T19:24:43.285Z,9.70
2022-10-05T19:27:20.958Z,10.05
2022-10-05T19:30:08.665Z,10.13
2022-10-05T19:32:47.219Z,9.40
2022-10-05T19:35:23.744Z,9.20
2022-10-05T19:38:00.731Z,9.23
2022-10-05T19:40:34.647Z,9.40
2022-10-05T19:43:24.374Z,9.35
2022-10-05T19:46:01.958Z,9.07
2022-10-05T19:48:35.687Z,10.18
2022-10-05T19:51:06.775Z,7.97
2022-10-05T19:53:38.485Z,7.80
2022-10-05T19:56:20.479Z,7.25
2022-10-05T19:58:52.018Z,6.90
2022-10-05T20:01:25.799Z,7.28
2022-10-05T20:03:54.812Z,7.15
2022-10-05T20:06:39.594Z,7.20
2022-10-05T20:09:20.730Z,6.75
2022-10-05T20:11:57.720Z,6.55
2022-10-05T20:14:32.981Z,6.07
2022-10-05T20:17:44.367Z,6.60
2022-10-05T20:20:24.789Z,6.85
2022-10-05T20:22:53.206Z,6.63
2022-10-05T20:25:32.064Z,6.63
2022-10-05T20:28:02.414Z,6.75
2022-10-05T20:30:34.034Z,6.95
2022-10-05T20:33:04.726Z,7.53
2022-10-05T20:35:32.949Z,6.50
2022-10-05T20:38:02.848Z,6.50
2022-10-05T20:40:31.851Z,6.97
2022-10-05T20:43:29.628Z,6.55
2022-10-05T20:45:59.455Z,6.43
2022-10-05T20:48:29.626Z,6.90
2022-10-05T20:50:58.630Z,5.60
2022-10-05T20:53:26.877Z,6.63
2022-10-05T20:56:02.577Z,6.47
2022-10-05T20:58:31.283Z,6.90
2022-10-05T21:01:19.983Z,6.28
2022-10-05T21:03:48.418Z,6.47
2022-10-05T21:06:18.048Z,6.22
2022-10-05T21:08:46.389Z,5.75
2022-10-05T21:11:15.050Z,6.43
2022-10-05T21:13:45.487Z,6.47
2022-10-05T21:16:17.641Z,6.22
2022-10-05T21:18:49.644Z,6.15
2022-10-05T21:21:19.105Z,5.88
2022-10-05T21:23:48.728Z,6.30
2022-10-05T21:26:16.928Z,6.38
2022-10-05T21:28:45.258Z,5.97
2022-10-05T21:31:15.032Z,6.32
2022-10-05T21:33:43.236Z,5.50
2022-10-05T21:36:11.398Z,6.68
2022-10-05T21:38:39.754Z,6.47
2022-10-05T21:41:07.961Z,6.85
2022-10-05T21:43:36.230Z,6.88
2022-10-05T21:46:05.198Z,6.30
2022-10-05T21:48:36.472Z,6.63
2022-10-05T21:53:35.618Z,5.32
2022-10-05T21:56:06.120Z,5.43
2022-10-05T21:58:34.499Z,6.05
2022-10-05T22:01:03.207Z,6.18
2022-10-05T22:03:31.465Z,6.28
2022-10-05T22:06:01.407Z,5.93
2022-10-05T22:08:31.355Z,5.97
2022-10-05T22:10:59.959Z,6.25
2022-10-05T22:13:29.068Z,6.03
2022-10-05T22:15:57.868Z,5.38
2022-10-05T22:18:27.251Z,5.15
2022-10-05T22:20:56.280Z,5.95
2022-10-05T22:23:25.863Z,5.60
2022-10-05T22:25:54.503Z,5.78
2022-10-05T22:28:23.180Z,5.45
2022-10-05T22:30:51.434Z,5.45
2022-10-05T22:33:19.711Z,5.63
2022-10-05T22:35:48.304Z,4.97
2022-10-05T22:38:16.784Z,5.60
2022-10-05T22:40:46.360Z,4.78
2022-10-05T22:43:14.936Z,4.78
2022-10-05T22:45:43.182Z,5.25
2022-10-05T22:48:11.559Z,5.07
2022-10-05T22:50:40.020Z,4.25
2022-10-05T22:53:08.387Z,5.13
2022-10-05T22:55:36.566Z,4.35
2022-10-05T22:58:06.447Z,4.45
2022-10-05T23:00:56.444Z,4.55
2022-10-05T23:03:23.745Z,4.10
2022-10-05T23:05:57.906Z,4.85
2022-10-05T23:08:27.056Z,4.80
2022-10-05T23:10:55.778Z,6.10
2022-10-05T23:13:26.659Z,7.35
2022-10-05T23:15:55.224Z,6.03
2022-10-05T23:18:23.579Z,5.03
2022-10-05T23:20:55.521Z,4.85
2022-10-05T23:23:25.598Z,4.90
2022-10-05T23:25:53.935Z,5.07
2022-10-05T23:28:22.507Z,5.28
2022-10-05T23:30:52.423Z,4.78
2022-10-05T23:33:20.851Z,4.63
2022-10-05T23:35:51.265Z,5.13
2022-10-05T23:38:19.771Z,3.85
2022-10-05T23:40:48.570Z,4.40
2022-10-05T23:43:16.794Z,4.40
2022-10-05T23:45:45.624Z,4.50
2022-10-05T23:48:15.402Z,4.93
2022-10-05T23:50:44.177Z,4.60
2022-10-05T23:53:12.778Z,4.60
2022-10-05T23:55:40.965Z,4.40
2022-10-05T23:58:09.475Z,4.30
